createdAt,value
2023-06-30T00:00:10.396Z,67.45
2023-06-30T00:02:38.085Z,67.87
2023-06-30T00:05:06.578Z,68.09
2023-06-30T00:07:34.373Z,68.18
2023-06-30T00:10:02.148Z,67.67
2023-06-30T00:12:30.599Z,68.23
2023-06-30T00:14:58.184Z,68.36
2023-06-30T00:17:25.865Z,68.72
2023-06-30T00:19:53.535Z,68.92
2023-06-30T00:22:22.699Z,68.53
2023-06-30T00:24:50.891Z,68.64
2023-06-30T00:27:18.492Z,68.89
2023-06-30T00:29:46.076Z,68.95
2023-06-30T00:32:13.721Z,69.03
2023-06-30T00:34:41.405Z,68.79
2023-06-30T00:37:09.620Z,68.91
2023-06-30T00:39:37.298Z,69.01
2023-06-30T00:42:04.928Z,69.02
2023-06-30T00:44:32.852Z,69.49
2023-06-30T00:47:02.255Z,69.24
2023-06-30T00:49:30.521Z,69.70
2023-06-30T00:51:58.104Z,70.13
2023-06-30T00:54:25.778Z,69.64
2023-06-30T00:56:53.353Z,69.97
2023-06-30T00:59:20.952Z,70.39
2023-06-30T01:01:49.708Z,70.57
2023-06-30T01:04:17.416Z,70.76
2023-06-30T01:06:46.212Z,70.64
2023-06-30T01:09:13.854Z,70.51
2023-06-30T01:11:41.655Z,71.17
2023-06-30T01:14:09.915Z,71.22
2023-06-30T01:16:37.651Z,71.08
2023-06-30T01:19:05.306Z,71.71
2023-06-30T01:21:32.892Z,71.19
2023-06-30T01:24:00.530Z,71.30
2023-06-30T01:26:28.641Z,71.47
2023-06-30T01:28:56.857Z,71.70
2023-06-30T01:31:24.677Z,72.06
2023-06-30T01:33:52.336Z,72.03
2023-06-30T01:36:19.970Z,72.51
2023-06-30T01:38:47.807Z,72.39
2023-06-30T01:41:15.426Z,72.33
2023-06-30T01:43:43.000Z,72.46
2023-06-30T01:46:10.620Z,72.44
2023-06-30T01:48:38.277Z,72.79
2023-06-30T01:51:06.527Z,72.39
2023-06-30T01:53:34.228Z,72.33
2023-06-30T01:56:01.825Z,73.28
2023-06-30T01:58:29.678Z,73.19
2023-06-30T02:00:57.293Z,72.72
2023-06-30T02:03:25.552Z,73.45
2023-06-30T02:05:53.198Z,73.56
2023-06-30T02:08:20.836Z,73.19
2023-06-30T02:10:48.396Z,73.36
2023-06-30T02:13:16.469Z,73.40
2023-06-30T02:15:44.624Z,73.52
2023-06-30T02:18:14.710Z,74.22
2023-06-30T02:20:42.379Z,73.84
2023-06-30T02:23:10.027Z,74.23
2023-06-30T02:25:37.620Z,74.39
2023-06-30T02:28:05.500Z,74.77
2023-06-30T02:30:33.142Z,74.42
2023-06-30T02:33:00.762Z,74.53
2023-06-30T02:35:29.392Z,74.64
2023-06-30T02:37:57.066Z,74.00
2023-06-30T02:40:27.571Z,73.99
2023-06-30T02:42:55.169Z,74.39
2023-06-30T02:45:23.191Z,74.31
2023-06-30T02:47:50.855Z,74.09
2023-06-30T02:50:18.471Z,74.44
2023-06-30T02:52:46.148Z,73.89
2023-06-30T02:55:15.090Z,74.41
2023-06-30T02:57:43.058Z,74.24
2023-06-30T03:00:11.837Z,73.96
2023-06-30T03:02:39.700Z,73.84
2023-06-30T03:05:08.477Z,74.12
2023-06-30T03:07:36.136Z,74.03
2023-06-30T03:10:03.898Z,73.71
2023-06-30T03:12:31.554Z,73.64
2023-06-30T03:14:59.174Z,74.09
2023-06-30T03:17:27.121Z,73.80
2023-06-30T03:19:54.769Z,74.16
2023-06-30T03:22:22.492Z,73.78
2023-06-30T03:24:50.058Z,74.14
2023-06-30T03:27:17.637Z,73.48
2023-06-30T03:29:45.584Z,74.18
2023-06-30T03:32:13.200Z,74.00
2023-06-30T03:34:40.795Z,73.94
2023-06-30T03:37:08.482Z,74.15
2023-06-30T03:39:36.195Z,73.87
2023-06-30T03:42:05.659Z,73.81
2023-06-30T03:44:33.341Z,73.98
2023-06-30T03:47:01.131Z,73.69
2023-06-30T03:49:28.787Z,73.49
2023-06-30T03:51:56.425Z,73.80
2023-06-30T03:54:24.624Z,73.62
2023-06-30T03:56:52.205Z,73.86
2023-06-30T03:59:19.808Z,73.86
2023-06-30T04:01:47.412Z,73.23
2023-06-30T04:04:15.699Z,73.98
2023-06-30T04:06:45.684Z,73.44
2023-06-30T04:09:13.298Z,73.72
2023-06-30T04:11:40.922Z,73.15
2023-06-30T04:14:08.569Z,73.46
2023-06-30T04:16:36.189Z,73.52
2023-06-30T04:19:04.297Z,73.69
2023-06-30T04:21:31.929Z,73.59
2023-06-30T04:23:59.492Z,72.97
2023-06-30T04:26:27.493Z,73.51
2023-06-30T04:28:55.196Z,72.93
2023-06-30T04:31:23.755Z,73.30
2023-06-30T04:33:51.807Z,73.30
2023-06-30T04:36:21.708Z,73.25
2023-06-30T04:38:49.706Z,73.37
2023-06-30T04:41:17.395Z,73.27
2023-06-30T04:43:45.889Z,73.44
2023-06-30T04:46:13.518Z,73.04
2023-06-30T04:48:41.241Z,72.86
2023-06-30T04:51:08.896Z,73.23
2023-06-30T04:53:36.533Z,73.21
2023-06-30T04:56:04.345Z,73.16
2023-06-30T04:58:32.062Z,72.77
2023-06-30T05:00:59.643Z,72.87
2023-06-30T05:03:27.347Z,73.29
2023-06-30T05:05:57.833Z,73.18
2023-06-30T05:08:25.622Z,73.09
2023-06-30T05:10:53.750Z,73.13
2023-06-30T05:13:21.442Z,73.18
2023-06-30T05:15:49.475Z,72.73
2023-06-30T05:18:17.491Z,72.94
2023-06-30T05:20:45.692Z,73.25
2023-06-30T05:23:13.389Z,73.05
2023-06-30T05:25:40.985Z,72.91
2023-06-30T05:28:08.771Z,73.16
2023-06-30T05:30:36.535Z,72.45
2023-06-30T05:33:06.203Z,72.80
2023-06-30T05:35:34.127Z,72.65
2023-06-30T05:38:02.224Z,72.48
2023-06-30T05:40:30.007Z,71.90
2023-06-30T05:42:57.789Z,71.80
2023-06-30T05:45:25.842Z,71.45
2023-06-30T05:47:53.487Z,71.62
2023-06-30T05:50:23.318Z,71.74
2023-06-30T05:52:50.951Z,71.62
2023-06-30T05:55:19.130Z,71.89
2023-06-30T05:57:47.394Z,71.34
2023-06-30T06:00:16.621Z,71.28
2023-06-30T06:02:44.370Z,71.32
2023-06-30T06:05:12.329Z,71.15
2023-06-30T06:07:41.750Z,71.19
2023-06-30T06:10:10.132Z,71.52
2023-06-30T06:12:37.868Z,71.44
2023-06-30T06:15:05.605Z,71.81
2023-06-30T06:17:33.567Z,71.63
2023-06-30T06:20:01.410Z,71.58
2023-06-30T06:22:29.476Z,71.45
2023-06-30T06:24:57.148Z,71.71
2023-06-30T06:27:24.994Z,72.24
2023-06-30T06:29:52.677Z,72.29
2023-06-30T06:32:21.005Z,71.97
2023-06-30T06:34:49.099Z,71.96
2023-06-30T06:37:17.129Z,71.47
2023-06-30T06:39:44.850Z,71.75
2023-06-30T06:42:12.748Z,71.97
2023-06-30T06:44:40.784Z,71.53
2023-06-30T06:47:08.512Z,71.56
2023-06-30T06:49:36.473Z,71.71
2023-06-30T06:52:04.344Z,70.99
2023-06-30T06:54:32.095Z,70.97
2023-06-30T06:56:59.830Z,71.37
2023-06-30T06:59:29.116Z,71.60
2023-06-30T07:01:56.932Z,71.63
2023-06-30T07:04:24.849Z,71.41
2023-06-30T07:06:58.817Z,70.98
2023-06-30T07:09:26.585Z,70.33
2023-06-30T07:11:54.701Z,70.34
2023-06-30T07:14:22.526Z,69.73
2023-06-30T07:16:51.358Z,69.29
2023-06-30T07:19:19.155Z,68.73
2023-06-30T07:21:47.226Z,68.86
2023-06-30T07:24:16.085Z,68.36
2023-06-30T07:26:45.589Z,68.84
2023-06-30T07:29:13.376Z,68.54
2023-06-30T07:31:41.316Z,68.17
2023-06-30T07:34:09.117Z,68.52
2023-06-30T07:36:37.530Z,67.65
2023-06-30T07:39:05.451Z,67.91
2023-06-30T07:41:36.735Z,68.07
2023-06-30T07:44:05.271Z,67.93
2023-06-30T07:46:33.304Z,68.77
2023-06-30T07:49:01.040Z,68.86
2023-06-30T07:51:28.922Z,69.13
2023-06-30T07:53:56.826Z,70.08
2023-06-30T07:56:24.673Z,70.02
2023-06-30T07:58:52.448Z,70.10
2023-06-30T08:01:20.762Z,69.74
2023-06-30T08:03:50.174Z,69.40
2023-06-30T08:06:18.273Z,69.15
2023-06-30T08:08:46.421Z,69.55
2023-06-30T08:11:14.390Z,69.07
2023-06-30T08:13:42.488Z,68.94
2023-06-30T08:16:10.498Z,68.98
2023-06-30T08:18:38.302Z,68.83
2023-06-30T08:21:18.428Z,68.09
2023-06-30T08:23:47.649Z,68.29
2023-06-30T08:26:16.612Z,67.86
2023-06-30T08:28:44.482Z,67.49
2023-06-30T08:31:12.341Z,67.44
2023-06-30T08:33:42.834Z,67.51
2023-06-30T08:36:11.567Z,67.18
2023-06-30T08:38:39.305Z,67.46
2023-06-30T08:41:07.181Z,67.48
2023-06-30T08:43:35.208Z,66.90
2023-06-30T08:46:03.962Z,66.46
2023-06-30T08:48:35.734Z,66.32
2023-06-30T08:51:03.576Z,65.80
2023-06-30T08:53:31.360Z,65.35
2023-06-30T08:55:59.082Z,65.43
2023-06-30T08:58:26.933Z,64.86
2023-06-30T09:00:55.592Z,65.01
2023-06-30T09:03:23.546Z,64.73
2023-06-30T09:05:52.729Z,64.33
2023-06-30T09:08:20.540Z,64.32
2023-06-30T09:10:48.658Z,64.64
2023-06-30T09:13:17.369Z,64.04
2023-06-30T09:15:45.506Z,64.23
2023-06-30T09:18:13.606Z,64.03
2023-06-30T09:20:41.641Z,62.89
2023-06-30T09:23:09.559Z,62.91
2023-06-30T09:25:38.592Z,62.10
2023-06-30T09:28:06.605Z,62.28
2023-06-30T09:30:34.710Z,62.83
2023-06-30T09:33:03.253Z,62.13
2023-06-30T09:35:31.366Z,62.09
2023-06-30T09:37:59.629Z,61.51
2023-06-30T09:40:27.612Z,61.37
2023-06-30T09:42:55.666Z,61.40
2023-06-30T09:45:23.578Z,61.21
2023-06-30T09:47:51.579Z,60.99
2023-06-30T09:50:20.475Z,60.65
2023-06-30T09:52:48.365Z,60.24
2023-06-30T09:55:16.706Z,59.63
2023-06-30T09:57:45.340Z,59.25
2023-06-30T10:00:22.117Z,59.36
2023-06-30T10:03:02.543Z,59.46
2023-06-30T10:05:30.582Z,59.24
2023-06-30T10:07:58.394Z,58.92
2023-06-30T10:10:26.566Z,58.26
2023-06-30T10:12:54.545Z,57.53
2023-06-30T10:15:24.446Z,58.40
2023-06-30T10:17:52.637Z,58.01
2023-06-30T10:20:25.494Z,57.16
2023-06-30T10:23:01.886Z,56.05
2023-06-30T10:25:31.276Z,54.97
2023-06-30T10:27:59.263Z,54.10
2023-06-30T10:30:27.234Z,52.25
2023-06-30T10:32:55.304Z,51.94
2023-06-30T10:35:23.388Z,50.38
2023-06-30T10:37:53.337Z,50.64
2023-06-30T10:40:21.301Z,52.33
2023-06-30T10:42:50.089Z,52.05
2023-06-30T10:45:20.076Z,51.85
2023-06-30T10:47:48.071Z,51.44
2023-06-30T10:50:16.594Z,51.75
2023-06-30T10:52:44.634Z,50.63
2023-06-30T10:55:12.472Z,49.75
2023-06-30T10:57:40.799Z,49.52
2023-06-30T11:00:08.814Z,49.81
2023-06-30T11:02:37.695Z,50.04
2023-06-30T11:05:07.726Z,51.20
2023-06-30T11:07:36.106Z,50.79
2023-06-30T11:10:07.438Z,50.20
2023-06-30T11:12:35.670Z,48.78
2023-06-30T11:15:05.581Z,47.54
2023-06-30T11:17:33.685Z,46.87
2023-06-30T11:20:01.797Z,46.96
2023-06-30T11:22:31.399Z,46.61
2023-06-30T11:24:59.222Z,45.79
2023-06-30T11:27:28.161Z,45.27
2023-06-30T11:29:56.111Z,45.40
2023-06-30T11:32:23.994Z,45.22
2023-06-30T11:34:52.014Z,44.90
2023-06-30T11:37:20.050Z,44.37
2023-06-30T11:39:49.711Z,44.19
2023-06-30T11:42:17.572Z,44.64
2023-06-30T11:44:45.461Z,44.63
2023-06-30T11:47:13.390Z,44.43
2023-06-30T11:49:41.197Z,44.53
2023-06-30T11:52:09.677Z,45.26
2023-06-30T11:54:37.548Z,45.12
2023-06-30T11:57:05.384Z,45.70
2023-06-30T11:59:33.245Z,46.33
2023-06-30T12:02:02.006Z,46.94
2023-06-30T12:04:34.929Z,47.93
2023-06-30T12:07:03.871Z,48.30
2023-06-30T12:09:32.086Z,49.07
2023-06-30T12:12:01.758Z,48.62
2023-06-30T12:14:30.058Z,48.35
2023-06-30T12:16:58.845Z,49.15
2023-06-30T12:19:27.215Z,49.17
2023-06-30T12:21:55.048Z,49.59
2023-06-30T12:24:22.892Z,50.19
2023-06-30T12:26:50.884Z,50.76
2023-06-30T12:29:19.533Z,51.04
2023-06-30T12:31:48.905Z,51.58
2023-06-30T12:34:16.906Z,51.12
2023-06-30T12:36:44.881Z,51.28
2023-06-30T12:39:12.892Z,51.67
2023-06-30T12:41:41.182Z,51.22
2023-06-30T12:44:09.758Z,50.96
2023-06-30T12:46:37.893Z,50.10
2023-06-30T12:49:06.677Z,48.45
2023-06-30T12:51:34.536Z,47.61
2023-06-30T12:54:03.163Z,47.21
2023-06-30T12:56:32.684Z,47.81
2023-06-30T12:59:00.771Z,48.76
2023-06-30T13:01:28.703Z,49.16
2023-06-30T13:03:56.744Z,50.05
2023-06-30T13:06:25.010Z,49.86
2023-06-30T13:08:52.954Z,50.19
2023-06-30T13:11:20.981Z,49.42
2023-06-30T13:13:51.349Z,49.22
2023-06-30T13:16:19.264Z,48.31
2023-06-30T13:18:48.436Z,46.05
2023-06-30T13:21:16.472Z,43.95
2023-06-30T13:23:44.344Z,42.24
2023-06-30T13:26:12.843Z,41.25
2023-06-30T13:28:41.684Z,41.00
2023-06-30T13:31:10.535Z,41.05
2023-06-30T13:33:38.555Z,41.08
2023-06-30T13:36:06.989Z,42.07
2023-06-30T13:38:34.962Z,43.42
2023-06-30T13:41:04.921Z,44.71
2023-06-30T13:43:32.838Z,44.77
2023-06-30T13:46:00.745Z,44.20
2023-06-30T13:48:29.314Z,43.84
2023-06-30T13:50:57.166Z,43.36
2023-06-30T13:53:26.179Z,42.77
2023-06-30T13:55:55.022Z,42.38
2023-06-30T13:58:22.980Z,43.58
2023-06-30T14:00:50.935Z,44.62
2023-06-30T14:03:21.710Z,46.19
2023-06-30T14:05:51.428Z,46.74
2023-06-30T14:08:20.268Z,45.95
2023-06-30T14:10:48.629Z,45.22
2023-06-30T14:13:16.515Z,44.43
2023-06-30T14:15:44.583Z,45.15
2023-06-30T14:18:12.895Z,46.09
2023-06-30T14:20:41.305Z,45.28
2023-06-30T14:23:09.232Z,44.80
2023-06-30T14:25:37.120Z,43.57
2023-06-30T14:28:05.036Z,41.82
2023-06-30T14:30:34.856Z,40.77
2023-06-30T14:33:04.937Z,40.22
2023-06-30T14:35:32.956Z,39.40
2023-06-30T14:38:02.714Z,38.60
2023-06-30T14:40:32.151Z,39.03
2023-06-30T14:43:00.240Z,40.57
2023-06-30T14:45:30.640Z,42.02
2023-06-30T14:47:58.751Z,43.06
2023-06-30T14:50:27.047Z,43.55
2023-06-30T14:52:54.936Z,45.06
2023-06-30T14:55:23.412Z,45.74
2023-06-30T14:57:51.924Z,44.23
2023-06-30T15:00:21.032Z,42.96
2023-06-30T15:02:49.830Z,43.16
2023-06-30T15:05:17.763Z,43.55
2023-06-30T15:07:47.514Z,44.40
2023-06-30T15:10:16.753Z,45.87
2023-06-30T15:12:44.624Z,46.09
2023-06-30T15:15:12.729Z,45.20
2023-06-30T15:17:41.283Z,43.63
2023-06-30T15:20:09.289Z,42.76
2023-06-30T15:22:38.487Z,42.18
2023-06-30T15:25:06.710Z,43.10
2023-06-30T15:27:35.909Z,44.02
2023-06-30T15:30:07.532Z,45.07
2023-06-30T15:32:35.555Z,46.37
2023-06-30T15:35:03.672Z,44.88
2023-06-30T15:37:31.748Z,44.52
2023-06-30T15:40:00.401Z,43.26
2023-06-30T15:42:28.544Z,42.71
2023-06-30T15:44:56.578Z,41.88
2023-06-30T15:47:25.800Z,41.81
2023-06-30T15:49:53.817Z,40.89
2023-06-30T15:52:21.672Z,40.79
2023-06-30T15:54:49.702Z,41.24
2023-06-30T15:57:17.673Z,42.25
2023-06-30T15:59:45.963Z,42.51
2023-06-30T16:02:14.210Z,41.86
2023-06-30T16:04:42.213Z,41.40
2023-06-30T16:07:10.172Z,41.22
2023-06-30T16:09:38.089Z,40.93
2023-06-30T16:12:07.494Z,40.74
2023-06-30T16:14:35.490Z,39.50
2023-06-30T16:17:03.468Z,39.03
2023-06-30T16:19:31.364Z,38.98
2023-06-30T16:21:59.269Z,39.20
2023-06-30T16:24:29.313Z,39.24
2023-06-30T16:26:57.314Z,39.64
2023-06-30T16:29:25.434Z,41.05
2023-06-30T16:31:53.524Z,41.80
2023-06-30T16:34:21.562Z,42.84
2023-06-30T16:36:50.358Z,43.87
2023-06-30T16:39:18.202Z,44.66
2023-06-30T16:41:46.119Z,44.72
2023-06-30T16:44:14.061Z,45.37
2023-06-30T16:46:42.336Z,45.11
2023-06-30T16:49:11.065Z,45.31
2023-06-30T16:51:39.825Z,44.26
2023-06-30T16:54:07.837Z,44.40
2023-06-30T16:56:35.761Z,44.55
2023-06-30T16:59:03.710Z,44.39
2023-06-30T17:01:31.999Z,44.78
2023-06-30T17:04:00.030Z,45.49
2023-06-30T17:06:28.027Z,45.38
2023-06-30T17:08:55.925Z,46.39
2023-06-30T17:11:23.920Z,46.67
2023-06-30T17:13:51.810Z,47.01
2023-06-30T17:16:20.716Z,47.44
2023-06-30T17:18:49.633Z,47.93
2023-06-30T17:21:17.600Z,47.97
2023-06-30T17:23:45.657Z,48.35
2023-06-30T17:26:16.556Z,48.19
2023-06-30T17:28:44.709Z,48.62
2023-06-30T17:31:12.969Z,48.46
2023-06-30T17:33:40.849Z,49.03
2023-06-30T17:36:10.582Z,49.11
2023-06-30T17:38:39.795Z,48.75
2023-06-30T17:41:07.777Z,49.34
2023-06-30T17:43:35.736Z,49.59
2023-06-30T17:46:04.706Z,49.11
2023-06-30T17:48:32.812Z,49.46
2023-06-30T17:51:01.116Z,49.34
2023-06-30T17:53:30.283Z,49.92
2023-06-30T17:55:58.349Z,49.92
2023-06-30T17:58:26.156Z,50.39
2023-06-30T18:00:54.175Z,50.49
2023-06-30T18:03:22.596Z,50.20
2023-06-30T18:05:50.712Z,50.63
2023-06-30T18:08:18.594Z,50.24
2023-06-30T18:10:49.112Z,50.74
2023-06-30T18:13:22.886Z,50.49
2023-06-30T18:15:50.956Z,50.55
2023-06-30T18:18:18.986Z,50.77
2023-06-30T18:20:46.965Z,50.86
2023-06-30T18:23:14.835Z,50.73
2023-06-30T18:25:42.612Z,50.52
2023-06-30T18:28:10.763Z,50.81
2023-06-30T18:30:38.612Z,50.76
2023-06-30T18:33:06.615Z,50.65
2023-06-30T18:35:34.606Z,50.92
2023-06-30T18:38:03.264Z,50.96
2023-06-30T18:40:31.205Z,51.35
2023-06-30T18:42:59.218Z,51.07
2023-06-30T18:45:27.042Z,51.54
2023-06-30T18:47:54.909Z,51.47
2023-06-30T18:50:24.581Z,51.69
2023-06-30T18:52:52.444Z,51.60
2023-06-30T18:55:20.697Z,51.67
2023-06-30T18:57:48.593Z,52.13
2023-06-30T19:00:16.487Z,52.31
2023-06-30T19:02:45.496Z,52.57
2023-06-30T19:05:13.503Z,52.96
2023-06-30T19:07:41.572Z,52.98
2023-06-30T19:10:10.709Z,53.26
2023-06-30T19:12:38.713Z,53.52
2023-06-30T19:15:07.079Z,53.73
2023-06-30T19:17:35.399Z,53.56
2023-06-30T19:20:03.461Z,53.98
2023-06-30T19:22:31.385Z,53.99
2023-06-30T19:25:00.234Z,54.07
2023-06-30T19:27:28.979Z,54.48
2023-06-30T19:29:56.875Z,54.49
2023-06-30T19:32:25.014Z,54.69
2023-06-30T19:34:52.982Z,55.22
2023-06-30T19:37:20.937Z,55.07
2023-06-30T19:39:51.056Z,55.33
2023-06-30T19:42:19.047Z,55.31
2023-06-30T19:44:47.753Z,55.69
2023-06-30T19:47:15.780Z,56.17
2023-06-30T19:49:44.953Z,56.30
2023-06-30T19:52:13.667Z,56.28
2023-06-30T19:54:41.793Z,56.16
2023-06-30T19:57:09.779Z,56.52
2023-06-30T19:59:37.769Z,56.44
2023-06-30T20:02:06.273Z,56.31
2023-06-30T20:04:34.843Z,56.31
2023-06-30T20:07:02.715Z,56.70
2023-06-30T20:09:32.749Z,56.79
2023-06-30T20:12:00.771Z,56.62
2023-06-30T20:14:28.674Z,56.77
2023-06-30T20:16:57.613Z,57.26
2023-06-30T20:19:25.575Z,57.64
2023-06-30T20:21:56.502Z,57.34
2023-06-30T20:24:24.853Z,57.45
2023-06-30T20:26:53.024Z,57.31
2023-06-30T20:29:22.119Z,57.77
2023-06-30T20:31:49.990Z,57.61
2023-06-30T20:34:17.968Z,57.36
2023-06-30T20:36:45.970Z,57.64
2023-06-30T20:39:13.830Z,57.56
2023-06-30T20:41:42.175Z,57.88
2023-06-30T20:44:13.615Z,57.68
2023-06-30T20:46:43.190Z,58.23
2023-06-30T20:49:11.368Z,57.62
2023-06-30T20:51:39.282Z,57.48
2023-06-30T20:54:08.095Z,57.58
2023-06-30T20:56:35.969Z,57.80
2023-06-30T20:59:03.864Z,57.52
2023-06-30T21:01:31.894Z,58.21
2023-06-30T21:03:59.960Z,57.78
2023-06-30T21:06:29.239Z,58.07
2023-06-30T21:08:57.209Z,58.13
2023-06-30T21:11:25.960Z,58.23
2023-06-30T21:13:53.776Z,58.10
2023-06-30T21:16:21.615Z,57.98
2023-06-30T21:18:53.007Z,58.02
2023-06-30T21:21:21.091Z,58.26
2023-06-30T21:23:49.154Z,58.07
2023-06-30T21:26:17.208Z,57.95
2023-06-30T21:28:45.005Z,57.96
2023-06-30T21:31:14.668Z,58.23
2023-06-30T21:33:42.589Z,58.23
2023-06-30T21:36:10.660Z,58.03
2023-06-30T21:38:38.526Z,58.12
2023-06-30T21:41:06.498Z,58.20
2023-06-30T21:43:34.777Z,57.92
2023-06-30T21:46:02.633Z,58.80
2023-06-30T21:48:30.535Z,58.78
2023-06-30T21:50:58.308Z,58.50
2023-06-30T21:53:26.590Z,58.95
2023-06-30T21:55:55.134Z,59.16
2023-06-30T21:58:27.815Z,59.23
2023-06-30T22:00:56.091Z,58.72
2023-06-30T22:03:24.157Z,58.88
2023-06-30T22:05:51.989Z,59.43
2023-06-30T22:08:20.646Z,59.51
2023-06-30T22:10:48.725Z,58.99
2023-06-30T22:13:16.676Z,59.57
2023-06-30T22:15:44.973Z,59.09
2023-06-30T22:18:12.831Z,58.95
2023-06-30T22:20:41.214Z,58.96
2023-06-30T22:23:09.049Z,59.29
2023-06-30T22:25:36.828Z,59.24
2023-06-30T22:28:04.619Z,59.79
2023-06-30T22:30:32.792Z,59.32
2023-06-30T22:33:01.380Z,59.03
2023-06-30T22:35:29.292Z,58.92
2023-06-30T22:37:57.105Z,59.60
2023-06-30T22:40:24.966Z,58.98
2023-06-30T22:42:52.749Z,58.92
2023-06-30T22:45:20.815Z,58.53
2023-06-30T22:47:48.496Z,58.88
2023-06-30T22:50:16.437Z,58.95
2023-06-30T22:52:44.184Z,58.99
2023-06-30T22:55:12.029Z,59.24
2023-06-30T22:57:40.292Z,59.35
2023-06-30T23:00:09.085Z,58.81
2023-06-30T23:02:36.923Z,59.32
2023-06-30T23:05:05.238Z,58.82
2023-06-30T23:07:33.033Z,59.54
2023-06-30T23:10:01.244Z,58.97
2023-06-30T23:12:28.966Z,59.08
2023-06-30T23:14:56.657Z,59.07
2023-06-30T23:17:26.720Z,59.23
2023-06-30T23:19:54.638Z,58.70
2023-06-30T23:22:31.607Z,58.49
2023-06-30T23:24:59.379Z,58.25
2023-06-30T23:27:28.728Z,58.66
2023-06-30T23:36:18.488Z,58.29
2023-06-30T23:44:59.336Z,58.13
2023-06-30T23:56:48.846Z,58.07
2023-06-30T23:59:16.428Z,57.83
